Aeroporto :
LOGIN :

Iscrizione | Disclaimer

   EN    FR    IT 

 










Sommario :    VFR   VFR Marginale   IFR   IFR Intensivo   IFR Molto Intensivo
Visibilità : 
Base nubi : 
>= 8 km
>= 3000ft
5 / 8 km
1000 / 3000 ft
1500m / 5 km
500 / 1000 ft
800 / 1500m
200 / 500 ft
< 800m
< 200 ft
Simboli :   Temporali  Nebbia  Neve Forte  Precipitazioni Forti  Vento > 20 kt
SIGMETs :   Varie  Temporali  Ghiacco  Turbolenza  Onda orograficha  Ceneri Vulcaniche






- Altitudine del aeroporto : 191 ft
- Codice IATA : RNB


ESDF - Ronneby

ULTIMO METAR :
  • 031120Z 17008KT 120V220 CAVOK 18/08 Q1009

METARs OBSOLETI :
  • 031050Z 17007KT 110V230 9999 FEW045 18/08 Q1009
  • 031020Z 14006KT 100V240 9999 FEW045 18/07 Q1009
  • 030950Z 11005KT 040V170 CAVOK 17/06 Q1010
  • 030920Z 16006KT 090V200 CAVOK 17/06 Q1010
  • 030850Z 11006KT 060V180 CAVOK 16/06 Q1010

TAF TAF ESDF
Valido dal 03 a 09 ore il 03 a 18 ore UTC


030820Z 0309/0318 07008KT CAVOK
BECMG 0309/0310 16008G18KT RMK MIL



MetMap, La meteo Aeronautica in un colpo d'occhio ! - Copyright ORBIFLY Dicembre 2007 - Disclaimer

ORBIFLY MET'MAP TEAM :

Programmazione e sviluppo : Alexandra Zaïnal
Concezione : Baudouin d'Aumeries
Aiuto per la programmazione : Marc-Olivier Méhu
Supporto tecnico e logistico : Manuel Goepfert
Aiuto per la traduzione : Arnaldo La Scala

Contatto : metmap@orbifly.com




FONTI E CREDITI :

   NOAA